sensor_id;sensor_type;location;lat;lon;timestamp;pressure;altitude;pressure_sealevel;temperature;humidity
63439;BME280;49567;48.958;8.294;2022-12-07T00:01:16;100577.22;;;6.49;79.63
63439;BME280;49567;48.958;8.294;2022-12-07T00:03:43;100570.84;;;6.43;80.39
63439;BME280;49567;48.958;8.294;2022-12-07T00:06:11;100572.09;;;6.41;80.31
63439;BME280;49567;48.958;8.294;2022-12-07T00:08:37;100564.22;;;6.39;80.39
63439;BME280;49567;48.958;8.294;2022-12-07T00:11:07;100561.72;;;6.44;79.88
63439;BME280;49567;48.958;8.294;2022-12-07T00:13:33;100569.38;;;6.47;80.51
63439;BME280;49567;48.958;8.294;2022-12-07T00:16:08;100563.97;;;6.47;80.12
63439;BME280;49567;48.958;8.294;2022-12-07T00:18:34;100557.59;;;6.42;80.09
63439;BME280;49567;48.958;8.294;2022-12-07T00:21:01;100561.94;;;6.43;79.97
63439;BME280;49567;48.958;8.294;2022-12-07T00:23:27;100559.22;;;6.43;80.46
63439;BME280;49567;48.958;8.294;2022-12-07T00:25:53;100561.94;;;6.43;80.01
63439;BME280;49567;48.958;8.294;2022-12-07T00:28:18;100560.72;;;6.39;80.17
63439;BME280;49567;48.958;8.294;2022-12-07T00:30:43;100561.56;;;6.33;80.16
63439;BME280;49567;48.958;8.294;2022-12-07T00:33:08;100565.34;;;6.25;81.25
63439;BME280;49567;48.958;8.294;2022-12-07T00:35:34;100562.81;;;6.30;80.55
63439;BME280;49567;48.958;8.294;2022-12-07T00:37:59;100566.34;;;6.31;80.47
63439;BME280;49567;48.958;8.294;2022-12-07T00:40:24;100564.69;;;6.30;80.53
63439;BME280;49567;48.958;8.294;2022-12-07T00:42:49;100565.31;;;6.32;80.34
63439;BME280;49567;48.958;8.294;2022-12-07T00:45:15;100566.16;;;6.32;80.83
63439;BME280;49567;48.958;8.294;2022-12-07T00:47:40;100564.06;;;6.34;80.62
63439;BME280;49567;48.958;8.294;2022-12-07T00:50:06;100560.53;;;6.34;80.60
63439;BME280;49567;48.958;8.294;2022-12-07T00:52:31;100566.34;;;6.31;80.59
63439;BME280;49567;48.958;8.294;2022-12-07T00:54:56;100563.88;;;6.22;80.31
63439;BME280;49567;48.958;8.294;2022-12-07T00:57:22;100554.63;;;6.18;80.98
63439;BME280;49567;48.958;8.294;2022-12-07T00:59:48;100554.66;;;6.12;81.37
63439;BME280;49567;48.958;8.294;2022-12-07T01:02:13;100556.91;;;6.15;80.62
63439;BME280;49567;48.958;8.294;2022-12-07T01:04:38;100559.78;;;6.13;80.98
63439;BME280;49567;48.958;8.294;2022-12-07T01:07:03;100563.16;;;6.02;81.49
63439;BME280;49567;48.958;8.294;2022-12-07T01:09:29;100558.19;;;6.06;81.29
63439;BME280;49567;48.958;8.294;2022-12-07T01:11:54;100555.03;;;6.15;81.10
63439;BME280;49567;48.958;8.294;2022-12-07T01:14:19;100553.38;;;6.14;80.85
63439;BME280;49567;48.958;8.294;2022-12-07T01:16:44;100558.16;;;6.12;80.85
63439;BME280;49567;48.958;8.294;2022-12-07T01:19:10;100555.06;;;6.09;81.11
63439;BME280;49567;48.958;8.294;2022-12-07T01:21:35;100555.50;;;6.06;81.31
63439;BME280;49567;48.958;8.294;2022-12-07T01:24:04;100556.94;;;6.08;80.79
63439;BME280;49567;48.958;8.294;2022-12-07T01:26:30;100559.41;;;6.03;81.15
63439;BME280;49567;48.958;8.294;2022-12-07T01:28:55;100555.91;;;6.03;81.32
63439;BME280;49567;48.958;8.294;2022-12-07T01:31:22;100562.94;;;6.04;81.21
63439;BME280;49567;48.958;8.294;2022-12-07T01:33:53;100559.22;;;6.05;81.18
63439;BME280;49567;48.958;8.294;2022-12-07T01:36:21;100561.94;;;5.98;81.11
63439;BME280;49567;48.958;8.294;2022-12-07T01:38:49;100556.16;;;5.95;81.63
63439;BME280;49567;48.958;8.294;2022-12-07T01:41:17;100569.97;;;6.05;81.34
63439;BME280;49567;48.958;8.294;2022-12-07T01:46:32;100559.88;;;5.94;81.77
63439;BME280;49567;48.958;8.294;2022-12-07T01:48:58;100562.38;;;5.89;82.21
63439;BME280;49567;48.958;8.294;2022-12-07T01:51:23;100558.63;;;5.83;81.87
63439;BME280;49567;48.958;8.294;2022-12-07T01:53:49;100555.34;;;5.74;82.24
63439;BME280;49567;48.958;8.294;2022-12-07T01:56:18;100557.84;;;5.76;82.89
63439;BME280;49567;48.958;8.294;2022-12-07T01:58:47;100566.09;;;5.88;82.52
63439;BME280;49567;48.958;8.294;2022-12-07T02:01:13;100563.19;;;5.96;82.47
63439;BME280;49567;48.958;8.294;2022-12-07T02:03:41;100566.06;;;6.01;81.97
63439;BME280;49567;48.958;8.294;2022-12-07T02:06:07;100571.00;;;6.04;81.95
63439;BME280;49567;48.958;8.294;2022-12-07T02:08:33;100571.25;;;6.02;81.83
63439;BME280;49567;48.958;8.294;2022-12-07T02:11:00;100557.34;;;6.05;82.01
63439;BME280;49567;48.958;8.294;2022-12-07T02:13:30;100552.19;;;6.04;82.24
63439;BME280;49567;48.958;8.294;2022-12-07T02:18:43;100545.53;;;6.06;82.20
63439;BME280;49567;48.958;8.294;2022-12-07T02:24:24;100544.91;;;6.11;81.18
63439;BME280;49567;48.958;8.294;2022-12-07T02:27:44;100546.97;;;6.15;81.35
63439;BME280;49567;48.958;8.294;2022-12-07T02:30:17;100557.50;;;6.17;81.23
63439;BME280;49567;48.958;8.294;2022-12-07T02:33:05;100552.13;;;6.17;81.29
63439;BME280;49567;48.958;8.294;2022-12-07T02:35:40;100562.69;;;6.18;80.95
63439;BME280;49567;48.958;8.294;2022-12-07T02:38:15;100560.84;;;6.12;81.19
63439;BME280;49567;48.958;8.294;2022-12-07T02:41:09;100561.88;;;6.11;81.39
63439;BME280;49567;48.958;8.294;2022-12-07T02:43:44;100557.09;;;6.13;81.27
63439;BME280;49567;48.958;8.294;2022-12-07T02:46:15;100551.13;;;6.11;81.27
63439;BME280;49567;48.958;8.294;2022-12-07T02:48:43;100547.78;;;6.09;81.37
63439;BME280;49567;48.958;8.294;2022-12-07T02:51:09;100551.56;;;6.08;81.52
63439;BME280;49567;48.958;8.294;2022-12-07T02:53:35;100545.09;;;6.09;81.42
63439;BME280;49567;48.958;8.294;2022-12-07T03:01:59;100538.06;;;6.15;81.35
63439;BME280;49567;48.958;8.294;2022-12-07T03:04:46;100547.41;;;6.12;80.81
63439;BME280;49567;48.958;8.294;2022-12-07T03:13:39;100538.53;;;6.05;80.92
63439;BME280;49567;48.958;8.294;2022-12-07T03:16:15;100533.13;;;6.12;80.82
63439;BME280;49567;48.958;8.294;2022-12-07T03:18:47;100530.22;;;6.07;80.75
63439;BME280;49567;48.958;8.294;2022-12-07T03:21:18;100519.50;;;6.00;81.31
63439;BME280;49567;48.958;8.294;2022-12-07T03:23:49;100515.41;;;5.91;81.67
63439;BME280;49567;48.958;8.294;2022-12-07T03:26:17;100506.94;;;5.81;81.60
63439;BME280;49567;48.958;8.294;2022-12-07T03:28:51;100521.22;;;5.88;82.09
63439;BME280;49567;48.958;8.294;2022-12-07T03:31:32;100517.66;;;5.94;82.01
63439;BME280;49567;48.958;8.294;2022-12-07T03:34:04;100518.25;;;5.96;81.40
63439;BME280;49567;48.958;8.294;2022-12-07T03:36:37;100523.00;;;6.01;81.76
63439;BME280;49567;48.958;8.294;2022-12-07T03:39:24;100515.53;;;6.03;81.00
63439;BME280;49567;48.958;8.294;2022-12-07T03:41:53;100521.34;;;6.00;80.77
63439;BME280;49567;48.958;8.294;2022-12-07T03:44:20;100513.94;;;5.95;81.10
63439;BME280;49567;48.958;8.294;2022-12-07T03:47:01;100516.03;;;5.87;81.19
63439;BME280;49567;48.958;8.294;2022-12-07T03:49:36;100519.78;;;5.79;81.62
63439;BME280;49567;48.958;8.294;2022-12-07T03:54:42;100520.59;;;5.66;81.19
63439;BME280;49567;48.958;8.294;2022-12-07T03:57:10;100520.84;;;5.65;81.71
63439;BME280;49567;48.958;8.294;2022-12-07T03:59:36;100513.59;;;5.65;81.68
63439;BME280;49567;48.958;8.294;2022-12-07T04:02:04;100514.63;;;5.64;81.77
63439;BME280;49567;48.958;8.294;2022-12-07T04:04:30;100514.63;;;5.64;81.68
63439;BME280;49567;48.958;8.294;2022-12-07T04:06:55;100511.34;;;5.62;81.73
63439;BME280;49567;48.958;8.294;2022-12-07T04:09:21;100516.50;;;5.64;81.87
63439;BME280;49567;48.958;8.294;2022-12-07T04:11:46;100515.88;;;5.68;81.31
63439;BME280;49567;48.958;8.294;2022-12-07T04:14:11;100517.31;;;5.71;81.30
63439;BME280;49567;48.958;8.294;2022-12-07T04:16:53;100515.63;;;5.76;81.18
63439;BME280;49567;48.958;8.294;2022-12-07T04:19:24;100522.69;;;5.71;81.39
63439;BME280;49567;48.958;8.294;2022-12-07T04:21:49;100523.09;;;5.74;81.69
63439;BME280;49567;48.958;8.294;2022-12-07T04:24:15;100507.34;;;5.78;81.31
63439;BME280;49567;48.958;8.294;2022-12-07T04:26:42;100512.31;;;5.81;81.43
63439;BME280;49567;48.958;8.294;2022-12-07T04:29:08;100510.88;;;5.79;80.87
63439;BME280;49567;48.958;8.294;2022-12-07T04:31:34;100506.09;;;5.81;80.57
63439;BME280;49567;48.958;8.294;2022-12-07T04:34:00;100507.31;;;5.85;80.68
63439;BME280;49567;48.958;8.294;2022-12-07T04:36:25;100503.19;;;5.82;80.54
63439;BME280;49567;48.958;8.294;2022-12-07T04:38:53;100500.50;;;5.82;80.96
63439;BME280;49567;48.958;8.294;2022-12-07T04:41:18;100503.00;;;5.77;81.20
63439;BME280;49567;48.958;8.294;2022-12-07T04:43:43;100498.03;;;5.81;81.08
63439;BME280;49567;48.958;8.294;2022-12-07T04:46:09;100502.97;;;5.84;80.48
63439;BME280;49567;48.958;8.294;2022-12-07T04:48:34;100507.31;;;5.85;81.12
63439;BME280;49567;48.958;8.294;2022-12-07T04:50:59;100506.31;;;5.86;80.87
63439;BME280;49567;48.958;8.294;2022-12-07T04:53:25;100513.53;;;5.85;80.76
63439;BME280;49567;48.958;8.294;2022-12-07T04:55:50;100512.50;;;5.86;81.24
63439;BME280;49567;48.958;8.294;2022-12-07T04:58:15;100509.63;;;5.88;80.97
63439;BME280;49567;48.958;8.294;2022-12-07T05:00:41;100510.22;;;5.83;80.81
63439;BME280;49567;48.958;8.294;2022-12-07T05:03:06;100504.66;;;5.78;80.76
63439;BME280;49567;48.958;8.294;2022-12-07T05:05:32;100503.66;;;5.72;80.90
63439;BME280;49567;48.958;8.294;2022-12-07T05:07:57;100506.38;;;5.66;80.90
63439;BME280;49567;48.958;8.294;2022-12-07T05:10:22;100512.78;;;5.65;81.09
63439;BME280;49567;48.958;8.294;2022-12-07T05:12:48;100515.22;;;5.73;80.83
63439;BME280;49567;48.958;8.294;2022-12-07T05:15:14;100506.53;;;5.78;80.88
63439;BME280;49567;48.958;8.294;2022-12-07T05:17:40;100502.56;;;5.80;80.93
63439;BME280;49567;48.958;8.294;2022-12-07T05:20:06;100505.06;;;5.82;80.65
63439;BME280;49567;48.958;8.294;2022-12-07T05:22:31;100502.81;;;5.72;80.56
63439;BME280;49567;48.958;8.294;2022-12-07T05:24:56;100509.22;;;5.78;80.67
63439;BME280;49567;48.958;8.294;2022-12-07T05:27:22;100501.53;;;5.81;81.12
63439;BME280;49567;48.958;8.294;2022-12-07T05:29:49;100503.41;;;5.81;80.35
63439;BME280;49567;48.958;8.294;2022-12-07T05:32:14;100509.63;;;5.81;80.36
63439;BME280;49567;48.958;8.294;2022-12-07T05:34:40;100514.56;;;5.84;80.54
63439;BME280;49567;48.958;8.294;2022-12-07T05:37:05;100512.50;;;5.86;79.82
63439;BME280;49567;48.958;8.294;2022-12-07T05:39:30;100509.81;;;5.86;80.39
63439;BME280;49567;48.958;8.294;2022-12-07T05:41:55;100510.66;;;5.87;80.00
63439;BME280;49567;48.958;8.294;2022-12-07T05:44:44;100511.88;;;5.84;80.57
63439;BME280;49567;48.958;8.294;2022-12-07T05:47:11;100511.47;;;5.87;80.09
63439;BME280;49567;48.958;8.294;2022-12-07T05:49:36;100516.66;;;5.89;79.86
63439;BME280;49567;48.958;8.294;2022-12-07T05:52:02;100513.75;;;5.90;79.71
63439;BME280;49567;48.958;8.294;2022-12-07T05:54:27;100516.22;;;5.85;80.37
63439;BME280;49567;48.958;8.294;2022-12-07T05:56:53;100505.91;;;5.82;80.27
63439;BME280;49567;48.958;8.294;2022-12-07T05:59:18;100507.31;;;5.85;80.06
63439;BME280;49567;48.958;8.294;2022-12-07T06:01:53;100510.84;;;5.85;80.04
63439;BME280;49567;48.958;8.294;2022-12-07T06:04:19;100515.19;;;5.86;80.20
63439;BME280;49567;48.958;8.294;2022-12-07T06:06:45;100511.88;;;5.84;80.13
63439;BME280;49567;48.958;8.294;2022-12-07T06:09:11;100508.78;;;5.87;79.77
63439;BME280;49567;48.958;8.294;2022-12-07T06:11:37;100513.97;;;5.89;79.41
63439;BME280;49567;48.958;8.294;2022-12-07T06:14:22;100507.75;;;5.82;79.53
63439;BME280;49567;48.958;8.294;2022-12-07T06:16:47;100509.00;;;5.79;79.49
63439;BME280;49567;48.958;8.294;2022-12-07T06:19:12;100507.94;;;5.80;79.92
63439;BME280;49567;48.958;8.294;2022-12-07T06:21:38;100512.50;;;5.80;79.61
63439;BME280;49567;48.958;8.294;2022-12-07T06:24:03;100508.41;;;5.70;79.52
63439;BME280;49567;48.958;8.294;2022-12-07T06:26:28;100511.91;;;5.71;79.33
63439;BME280;49567;48.958;8.294;2022-12-07T06:28:54;100512.13;;;5.76;79.72
63439;BME280;49567;48.958;8.294;2022-12-07T06:31:19;100517.28;;;5.78;79.49
63439;BME280;49567;48.958;8.294;2022-12-07T06:33:44;100515.63;;;5.76;79.56
63439;BME280;49567;48.958;8.294;2022-12-07T06:36:10;100518.31;;;5.76;79.48
63439;BME280;49567;48.958;8.294;2022-12-07T06:38:36;100523.09;;;5.74;79.72
63439;BME280;49567;48.958;8.294;2022-12-07T06:41:01;100521.81;;;5.77;79.69
63439;BME280;49567;48.958;8.294;2022-12-07T06:43:26;100529.28;;;5.75;79.53
63439;BME280;49567;48.958;8.294;2022-12-07T06:45:52;100520.59;;;5.73;79.63
63439;BME280;49567;48.958;8.294;2022-12-07T06:48:19;100522.50;;;5.66;79.47
63439;BME280;49567;48.958;8.294;2022-12-07T06:50:45;100519.38;;;5.69;79.65
63439;BME280;49567;48.958;8.294;2022-12-07T06:53:10;100518.13;;;5.71;79.17
63439;BME280;49567;48.958;8.294;2022-12-07T06:55:36;100517.31;;;5.71;79.50
63439;BME280;49567;48.958;8.294;2022-12-07T06:58:01;100512.94;;;5.70;79.30
63439;BME280;49567;48.958;8.294;2022-12-07T07:00:27;100515.63;;;5.70;79.08
63439;BME280;49567;48.958;8.294;2022-12-07T07:02:53;100517.09;;;5.79;78.91
63439;BME280;49567;48.958;8.294;2022-12-07T07:05:18;100521.41;;;5.80;78.82
63439;BME280;49567;48.958;8.294;2022-12-07T07:07:43;100511.91;;;5.71;78.64
63439;BME280;49567;48.958;8.294;2022-12-07T07:10:09;100516.28;;;5.72;79.31
63439;BME280;49567;48.958;8.294;2022-12-07T07:12:34;100520.38;;;5.74;78.99
63439;BME280;49567;48.958;8.294;2022-12-07T07:14:59;100518.97;;;5.72;79.16
63439;BME280;49567;48.958;8.294;2022-12-07T07:17:25;100520.59;;;5.73;78.58
63439;BME280;49567;48.958;8.294;2022-12-07T07:19:50;100524.34;;;5.72;78.67
63439;BME280;49567;48.958;8.294;2022-12-07T07:22:15;100523.91;;;5.75;78.24
63439;BME280;49567;48.958;8.294;2022-12-07T07:24:40;100517.88;;;5.80;77.80
63439;BME280;49567;48.958;8.294;2022-12-07T07:27:06;100524.50;;;5.84;77.96
63439;BME280;49567;48.958;8.294;2022-12-07T07:29:31;100518.72;;;5.87;77.28
63439;BME280;49567;48.958;8.294;2022-12-07T07:31:56;100520.38;;;5.88;77.19
63439;BME280;49567;48.958;8.294;2022-12-07T07:34:22;100528.03;;;5.91;77.20
63439;BME280;49567;48.958;8.294;2022-12-07T07:36:47;100522.47;;;5.86;77.62
63439;BME280;49567;48.958;8.294;2022-12-07T07:39:12;100530.53;;;5.79;77.50
63439;BME280;49567;48.958;8.294;2022-12-07T07:41:38;100524.31;;;5.79;77.26
63439;BME280;49567;48.958;8.294;2022-12-07T07:44:03;100524.72;;;5.82;77.71
63439;BME280;49567;48.958;8.294;2022-12-07T07:46:28;100527.84;;;5.86;77.44
63439;BME280;49567;48.958;8.294;2022-12-07T07:48:54;100527.84;;;5.86;77.19
63439;BME280;49567;48.958;8.294;2022-12-07T07:51:19;100530.09;;;5.82;77.29
63439;BME280;49567;48.958;8.294;2022-12-07T07:53:44;100530.94;;;5.89;77.05
63439;BME280;49567;48.958;8.294;2022-12-07T07:56:09;100529.03;;;5.90;76.97
63439;BME280;49567;48.958;8.294;2022-12-07T07:58:35;100527.59;;;5.81;77.42
63439;BME280;49567;48.958;8.294;2022-12-07T08:01:07;100536.06;;;5.84;77.38
63439;BME280;49567;48.958;8.294;2022-12-07T08:03:33;100534.03;;;5.86;77.06
63439;BME280;49567;48.958;8.294;2022-12-07T08:06:05;100540.03;;;5.88;77.03
63439;BME280;49567;48.958;8.294;2022-12-07T08:08:31;100543.75;;;5.87;77.16
63439;BME280;49567;48.958;8.294;2022-12-07T08:10:57;100535.69;;;5.87;76.44
63439;BME280;49567;48.958;8.294;2022-12-07T08:13:25;100547.88;;;5.90;76.77
63439;BME280;49567;48.958;8.294;2022-12-07T08:15:50;100544.16;;;5.91;76.81
63439;BME280;49567;48.958;8.294;2022-12-07T08:18:16;100548.28;;;5.93;76.54
63439;BME280;49567;48.958;8.294;2022-12-07T08:20:41;100543.53;;;5.95;76.17
63439;BME280;49567;48.958;8.294;2022-12-07T08:23:07;100557.38;;;5.99;76.53
63439;BME280;49567;48.958;8.294;2022-12-07T08:25:34;100557.97;;;6.01;76.26
63439;BME280;49567;48.958;8.294;2022-12-07T08:27:59;100556.97;;;5.95;76.39
63439;BME280;49567;48.958;8.294;2022-12-07T08:30:27;100556.56;;;5.98;76.15
63439;BME280;49567;48.958;8.294;2022-12-07T08:32:52;100555.53;;;5.99;76.01
63439;BME280;49567;48.958;8.294;2022-12-07T08:35:18;100556.34;;;5.93;75.89
63439;BME280;49567;48.958;8.294;2022-12-07T08:37:43;100562.97;;;5.91;76.19
63439;BME280;49567;48.958;8.294;2022-12-07T08:40:10;100561.31;;;5.96;76.37
63439;BME280;49567;48.958;8.294;2022-12-07T08:42:40;100560.47;;;6.02;76.17
63439;BME280;49567;48.958;8.294;2022-12-07T08:45:07;100565.63;;;6.04;75.86
63439;BME280;49567;48.958;8.294;2022-12-07T08:47:35;100565.03;;;6.02;75.88
63439;BME280;49567;48.958;8.294;2022-12-07T08:50:02;100568.53;;;6.02;75.80
63439;BME280;49567;48.958;8.294;2022-12-07T08:52:30;100566.06;;;6.01;75.75
63439;BME280;49567;48.958;8.294;2022-12-07T08:54:56;100573.28;;;6.00;75.43
63439;BME280;49567;48.958;8.294;2022-12-07T08:57:22;100573.69;;;6.04;75.71
63439;BME280;49567;48.958;8.294;2022-12-07T08:59:47;100577.63;;;6.08;75.50
63439;BME280;49567;48.958;8.294;2022-12-07T09:02:12;100574.09;;;6.07;75.73
63439;BME280;49567;48.958;8.294;2022-12-07T09:04:38;100572.66;;;6.11;75.63
63439;BME280;49567;48.958;8.294;2022-12-07T09:07:04;100568.69;;;6.14;75.46
63439;BME280;49567;48.958;8.294;2022-12-07T09:09:29;100572.63;;;6.18;75.38
63439;BME280;49567;48.958;8.294;2022-12-07T09:11:54;100572.59;;;6.24;75.41
63439;BME280;49567;48.958;8.294;2022-12-07T09:14:20;100568.03;;;6.25;74.93
63439;BME280;49567;48.958;8.294;2022-12-07T09:16:45;100569.25;;;6.22;75.43
63439;BME280;49567;48.958;8.294;2022-12-07T09:19:11;100571.34;;;6.20;75.22
63439;BME280;49567;48.958;8.294;2022-12-07T09:21:36;100566.22;;;6.19;75.00
63439;BME280;49567;48.958;8.294;2022-12-07T09:24:01;100563.13;;;6.15;74.70
63439;BME280;49567;48.958;8.294;2022-12-07T09:26:27;100563.91;;;6.16;74.75
63439;BME280;49567;48.958;8.294;2022-12-07T09:28:52;100558.56;;;6.09;74.52
63439;BME280;49567;48.958;8.294;2022-12-07T09:31:17;100556.50;;;6.11;74.21
63439;BME280;49567;48.958;8.294;2022-12-07T09:33:43;100558.75;;;6.14;74.55
63439;BME280;49567;48.958;8.294;2022-12-07T09:36:09;100567.06;;;6.06;74.00
63439;BME280;49567;48.958;8.294;2022-12-07T09:38:35;100562.91;;;6.10;74.14
63439;BME280;49567;48.958;8.294;2022-12-07T09:41:05;100569.09;;;6.17;73.71
63439;BME280;49567;48.958;8.294;2022-12-07T09:43:32;100568.09;;;6.12;73.83
63439;BME280;49567;48.958;8.294;2022-12-07T09:45:59;100562.44;;;6.20;74.05
63439;BME280;49567;48.958;8.294;2022-12-07T09:48:36;100569.91;;;6.24;74.08
63439;BME280;49567;48.958;8.294;2022-12-07T09:51:13;100570.91;;;6.30;73.65
63439;BME280;49567;48.958;8.294;2022-12-07T09:53:39;100563.84;;;6.29;73.87
63439;BME280;49567;48.958;8.294;2022-12-07T09:56:05;100561.16;;;6.29;72.98
63439;BME280;49567;48.958;8.294;2022-12-07T09:58:31;100561.41;;;6.28;73.47
63439;BME280;49567;48.958;8.294;2022-12-07T10:03:29;100559.31;;;6.30;73.65
63439;BME280;49567;48.958;8.294;2022-12-07T10:05:55;100554.34;;;6.26;73.42
63439;BME280;49567;48.958;8.294;2022-12-07T10:08:26;100552.88;;;6.31;73.42
63439;BME280;49567;48.958;8.294;2022-12-07T10:10:54;100552.06;;;6.30;73.36
63439;BME280;49567;48.958;8.294;2022-12-07T10:13:34;100543.81;;;6.25;73.15
63439;BME280;49567;48.958;8.294;2022-12-07T10:16:02;100549.19;;;6.25;73.21
63439;BME280;49567;48.958;8.294;2022-12-07T10:23:43;100541.69;;;6.34;72.97
63439;BME280;49567;48.958;8.294;2022-12-07T10:26:33;100542.53;;;6.34;73.33
63439;BME280;49567;48.958;8.294;2022-12-07T10:29:01;100540.44;;;6.36;72.92
63439;BME280;49567;48.958;8.294;2022-12-07T10:31:28;100533.81;;;6.39;72.67
63439;BME280;49567;48.958;8.294;2022-12-07T10:33:55;100534.44;;;6.34;72.89
63439;BME280;49567;48.958;8.294;2022-12-07T10:36:29;100533.03;;;6.32;72.56
63439;BME280;49567;48.958;8.294;2022-12-07T10:39:03;100538.00;;;6.28;73.02
63439;BME280;49567;48.958;8.294;2022-12-07T10:41:34;100527.00;;;6.30;72.90
63439;BME280;49567;48.958;8.294;2022-12-07T10:43:59;100532.34;;;6.36;72.21
63439;BME280;49567;48.958;8.294;2022-12-07T11:00:18;100518.84;;;6.43;72.26
63439;BME280;49567;48.958;8.294;2022-12-07T11:03:00;100520.91;;;6.47;72.27
63439;BME280;49567;48.958;8.294;2022-12-07T11:16:55;100498.69;;;6.58;72.44
63439;BME280;49567;48.958;8.294;2022-12-07T11:19:28;100486.59;;;6.67;72.07
63439;BME280;49567;48.958;8.294;2022-12-07T11:22:01;100487.38;;;6.74;72.66
63439;BME280;49567;48.958;8.294;2022-12-07T11:24:52;100488.41;;;6.73;71.89
63439;BME280;49567;48.958;8.294;2022-12-07T11:27:25;100478.47;;;6.74;72.11
63439;BME280;49567;48.958;8.294;2022-12-07T11:38:12;100484.69;;;6.74;72.19
63439;BME280;49567;48.958;8.294;2022-12-07T11:40:40;100479.31;;;6.74;72.53
63439;BME280;49567;48.958;8.294;2022-12-07T11:43:28;100475.28;;;6.84;72.37
63439;BME280;49567;48.958;8.294;2022-12-07T11:46:08;100464.50;;;6.84;72.42
63439;BME280;49567;48.958;8.294;2022-12-07T11:48:49;100473.34;;;6.91;72.30
63439;BME280;49567;48.958;8.294;2022-12-07T11:51:18;100465.66;;;6.94;72.43
63439;BME280;49567;48.958;8.294;2022-12-07T11:53:50;100464.38;;;6.97;72.42
63439;BME280;49567;48.958;8.294;2022-12-07T11:56:20;100462.28;;;6.99;72.13
63439;BME280;49567;48.958;8.294;2022-12-07T11:59:08;100458.56;;;7.00;72.11
63439;BME280;49567;48.958;8.294;2022-12-07T12:07:22;100450.41;;;7.06;72.42
63439;BME280;49567;48.958;8.294;2022-12-07T12:09:52;100451.25;;;7.07;71.94
63439;BME280;49567;48.958;8.294;2022-12-07T12:12:45;100453.50;;;7.10;72.38
63439;BME280;49567;48.958;8.294;2022-12-07T12:18:30;100450.72;;;7.16;72.17
63439;BME280;49567;48.958;8.294;2022-12-07T12:21:08;100450.94;;;7.15;71.77
63439;BME280;49567;48.958;8.294;2022-12-07T12:23:44;100439.94;;;7.16;72.22
63439;BME280;49567;48.958;8.294;2022-12-07T12:26:20;100444.06;;;7.19;72.28
63439;BME280;49567;48.958;8.294;2022-12-07T12:28:58;100445.03;;;7.24;72.26
63439;BME280;49567;48.958;8.294;2022-12-07T12:33:55;100439.78;;;7.11;72.52
63439;BME280;49567;48.958;8.294;2022-12-07T12:46:52;100424.38;;;7.18;71.91
63439;BME280;49567;48.958;8.294;2022-12-07T12:51:48;100422.28;;;7.20;72.75
63439;BME280;49567;48.958;8.294;2022-12-07T12:54:21;100429.38;;;7.15;72.77
63439;BME280;49567;48.958;8.294;2022-12-07T12:56:52;100427.38;;;7.10;72.30
63439;BME280;49567;48.958;8.294;2022-12-07T12:59:42;100416.66;;;7.04;72.77
63439;BME280;49567;48.958;8.294;2022-12-07T13:07:59;100408.41;;;6.99;72.88
63439;BME280;49567;48.958;8.294;2022-12-07T13:21:00;100400.19;;;6.94;73.53
63439;BME280;49567;48.958;8.294;2022-12-07T13:26:23;100395.63;;;6.94;73.41
63439;BME280;49567;48.958;8.294;2022-12-07T13:31:37;100393.38;;;6.91;72.84
63439;BME280;49567;48.958;8.294;2022-12-07T13:37:28;100398.75;;;6.91;72.99
63439;BME280;49567;48.958;8.294;2022-12-07T13:39:57;100393.38;;;6.91;73.73
63439;BME280;49567;48.958;8.294;2022-12-07T13:42:30;100379.53;;;6.88;73.06
63439;BME280;49567;48.958;8.294;2022-12-07T13:44:59;100388.06;;;6.85;73.54
63439;BME280;49567;48.958;8.294;2022-12-07T13:49:57;100379.34;;;6.83;73.69
63439;BME280;49567;48.958;8.294;2022-12-07T13:52:30;100381.44;;;6.81;73.92
63439;BME280;49567;48.958;8.294;2022-12-07T13:57:31;100379.13;;;6.84;73.37
63439;BME280;49567;48.958;8.294;2022-12-07T14:00:00;100382.03;;;6.83;73.33
63439;BME280;49567;48.958;8.294;2022-12-07T14:02:31;100377.72;;;6.82;73.29
63439;BME280;49567;48.958;8.294;2022-12-07T14:05:13;100380.75;;;6.85;73.66
63439;BME280;49567;48.958;8.294;2022-12-07T14:07:57;100384.16;;;6.81;73.29
63439;BME280;49567;48.958;8.294;2022-12-07T14:10:35;100375.44;;;6.78;73.38
63439;BME280;49567;48.958;8.294;2022-12-07T14:13:03;100379.78;;;6.79;73.56
63439;BME280;49567;48.958;8.294;2022-12-07T14:15:50;100383.09;;;6.82;73.53
63439;BME280;49567;48.958;8.294;2022-12-07T14:18:38;100378.75;;;6.81;73.18
63439;BME280;49567;48.958;8.294;2022-12-07T14:21:06;100384.59;;;6.77;72.61
63439;BME280;49567;48.958;8.294;2022-12-07T14:23:40;100369.41;;;6.83;73.02
63439;BME280;49567;48.958;8.294;2022-12-07T14:26:14;100377.03;;;6.86;72.52
63439;BME280;49567;48.958;8.294;2022-12-07T14:28:41;100372.94;;;6.84;72.79
63439;BME280;49567;48.958;8.294;2022-12-07T14:31:15;100378.31;;;6.84;73.22
63439;BME280;49567;48.958;8.294;2022-12-07T14:33:41;100384.16;;;6.81;73.10
63439;BME280;49567;48.958;8.294;2022-12-07T14:36:11;100384.59;;;6.77;72.84
63439;BME280;49567;48.958;8.294;2022-12-07T14:38:37;100386.47;;;6.77;72.93
63439;BME280;49567;48.958;8.294;2022-12-07T14:41:04;100386.28;;;6.72;72.95
63439;BME280;49567;48.958;8.294;2022-12-07T14:43:49;100387.56;;;6.69;73.03
63439;BME280;49567;48.958;8.294;2022-12-07T14:46:15;100387.56;;;6.69;73.00
63439;BME280;49567;48.958;8.294;2022-12-07T14:48:40;100386.97;;;6.67;73.53
63439;BME280;49567;48.958;8.294;2022-12-07T14:51:07;100388.81;;;6.67;73.12
63439;BME280;49567;48.958;8.294;2022-12-07T14:53:37;100390.69;;;6.66;73.33
63439;BME280;49567;48.958;8.294;2022-12-07T14:56:04;100391.53;;;6.67;73.27
63439;BME280;49567;48.958;8.294;2022-12-07T14:58:32;100394.00;;;6.68;73.14
63439;BME280;49567;48.958;8.294;2022-12-07T15:00:58;100391.72;;;6.65;73.10
63439;BME280;49567;48.958;8.294;2022-12-07T15:03:23;100382.91;;;6.58;73.09
63439;BME280;49567;48.958;8.294;2022-12-07T15:05:49;100383.31;;;6.55;73.16
63439;BME280;49567;48.958;8.294;2022-12-07T15:08:14;100383.03;;;6.45;73.65